| time (UTC) | temp F | wind direction | speed MPH | gust MPH | rain 1hr in | rain 24hr in | rain mn in | humidity % | barometer mb |
| 20260903223826 | 83 | 348 | 4.0 | 11.0 | 0.00 | 0.00 | 0.00 | 48 | 1020.3 |
| 20260903213321 | 73 | 360 | 2.0 | 6.0 | 0.00 | 0.00 | 0.00 | 77 | 1022.0 |
| 20260903212319 | 74 | 360 | 1.0 | 5.0 | 0.00 | 0.00 | 0.00 | 75 | 1022.0 |
| 20260903211341 | 75 | 109 | 1.0 | 4.0 | 0.00 | 0.00 | 0.00 | 74 | 1021.6 |
| 20260903210823 | 75 | 138 | 2.0 | 4.0 | 0.00 | 0.00 | 0.00 | 74 | 1021.5 |
| 20260903210315 | 75 | 116 | 3.0 | 6.0 | 0.00 | 0.00 | 0.00 | 73 | 1021.5 |
| 20260903205851 | 76 | 360 | 3.0 | 6.0 | 0.00 | 0.00 | 0.00 | 72 | 1021.4 |
| 20260903205348 | 76 | 143 | 3.0 | 5.0 | 0.00 | 0.00 | 0.00 | 71 | 1021.4 |
| 20260903203321 | 77 | 360 | 4.0 | 8.0 | 0.00 | 0.00 | 0.00 | 68 | 1020.8 |
| 20260903202825 | 78 | 360 | 3.0 | 6.0 | 0.00 | 0.00 | 0.00 | 66 | 1020.7 |
| 20260903202321 | 79 | 122 | 2.0 | 6.0 | 0.00 | 0.00 | 0.00 | 65 | 1020.6 |
| 20260903201816 | 79 | 122 | 3.0 | 6.0 | 0.00 | 0.00 | 0.00 | 65 | 1020.5 |
| 20260903201340 | 80 | 360 | 4.0 | 6.0 | 0.00 | 0.00 | 0.00 | 62 | 1020.5 |
| 20260903200815 | 82 | 117 | 1.0 | 3.0 | 0.00 | 0.00 | 0.00 | 60 | 1020.3 |
| 20260903200318 | 82 | 111 | 2.0 | 3.0 | 0.00 | 0.00 | 0.00 | 58 | 1020.1 |
| 20260903195837 | 83 | 142 | 0.0 | 6.0 | 0.00 | 0.00 | 0.00 | 59 | 1020.0 |
| 20260903195314 | 84 | 131 | 0.0 | 6.0 | 0.00 | 0.00 | 0.00 | 55 | 1019.8 |
| 20260903194830 | 85 | 140 | 1.0 | 3.0 | 0.00 | 0.00 | 0.00 | 55 | 1019.7 |
| 20260903194332 | 85 | 46 | 0.0 | 1.0 | 0.00 | 0.00 | 0.00 | 54 | 1019.6 |
| 20260903193828 | 85 | 46 | 0.0 | 2.0 | 0.00 | 0.00 | 0.00 | 51 | 1019.6 |
| 20260903193328 | 84 | 45 | 0.0 | 2.0 | 0.00 | 0.00 | 0.00 | 52 | 1019.5 |
| 20260903192819 | 83 | 45 | 1.0 | 3.0 | 0.00 | 0.00 | 0.00 | 56 | 1019.4 |
| 20260903192315 | 82 | 360 | 0.0 | 2.0 | 0.00 | 0.00 | 0.00 | 59 | 1019.5 |
| 20260903191819 | 82 | 176 | 0.0 | 2.0 | 0.00 | 0.00 | 0.00 | 59 | 1019.4 |
| 20260903191315 | 82 | 176 | 0.0 | 4.0 | 0.00 | 0.00 | 0.00 | 58 | 1019.4 |
| 20260903190835 | 83 | 176 | 2.0 | 5.0 | 0.00 | 0.00 | 0.00 | 56 | 1019.5 |
| 20260903190331 | 86 | 360 | 3.0 | 5.0 | 0.00 | 0.00 | 0.00 | 53 | 1019.3 |
| 20260903185833 | 90 | 165 | 3.0 | 5.0 | 0.00 | 0.00 | 0.00 | 49 | 1019.2 |
| 20260903185330 | 92 | 150 | 2.0 | 4.0 | 0.00 | 0.00 | 0.00 | 45 | 1019.1 |
| 20260903184854 | 92 | 109 | 1.0 | 4.0 | 0.00 | 0.00 | 0.00 | 42 | 1019.0 |
| 20260903184328 | 92 | 205 | 0.0 | 3.0 | 0.00 | 0.00 | 0.00 | 44 | 1019.0 |
| 20260903183852 | 93 | 279 | 0.0 | 1.0 | 0.00 | 0.00 | 0.00 | 39 | 1018.9 |
| 20260903183328 | 94 | 279 | 0.0 | 2.0 | 0.00 | 0.00 | 0.00 | 40 | 1018.9 |
| 20260903182830 | 94 | 278 | 1.0 | 2.0 | 0.00 | 0.00 | 0.00 | 38 | 1019.0 |
| 20260903182343 | 96 | 277 | 1.0 | 4.0 | 0.00 | 0.00 | 0.00 | 39 | 1019.0 |
| 20260903181825 | 96 | 308 | 2.0 | 6.0 | 0.00 | 0.00 | 0.00 | 33 | 1018.9 |
| 20260903181319 | 96 | 360 | 3.0 | 8.0 | 0.00 | 0.00 | 0.00 | 33 | 1019.0 |
| 20260903180842 | 96 | 360 | 2.0 | 4.0 | 0.00 | 0.00 | 0.00 | 34 | 1019.0 |
| 20260903180316 | 96 | 300 | 3.0 | 4.0 | 0.00 | 0.00 | 0.00 | 35 | 1019.1 |
| 20260903175817 | 96 | 299 | 1.0 | 5.0 | 0.00 | 0.00 | 0.00 | 37 | 1019.1 |
| 20260903175400 | 96 | 292 | 2.0 | 5.0 | 0.00 | 0.00 | 0.00 | 34 | 1019.2 |
| 20260903174814 | 96 | 310 | 2.0 | 5.0 | 0.00 | 0.00 | 0.00 | 34 | 1019.2 |
| 20260903174330 | 96 | 333 | 2.0 | 5.0 | 0.00 | 0.00 | 0.00 | 34 | 1019.3 |
| 20260903173834 | 96 | 360 | 2.0 | 6.0 | 0.00 | 0.00 | 0.00 | 33 | 1019.4 |
| 20260903173329 | 96 | 360 | 4.0 | 8.0 | 0.00 | 0.00 | 0.00 | 33 | 1019.3 |
| 20260903172825 | 96 | 360 | 4.0 | 9.0 | 0.00 | 0.00 | 0.00 | 34 | 1019.4 |
| 20260903172327 | 96 | 321 | 4.0 | 9.0 | 0.00 | 0.00 | 0.00 | 34 | 1019.4 |
| 20260903171852 | 95 | 360 | 4.0 | 9.0 | 0.00 | 0.00 | 0.00 | 34 | 1019.5 |
| 20260903171333 | 94 | 360 | 4.0 | 10.0 | 0.00 | 0.00 | 0.00 | 36 | 1019.5 |
| 20260903170847 | 91 | 360 | 5.0 | 11.0 | 0.00 | 0.00 | 0.00 | 38 | 1019.6 |
| 20260903170330 | 89 | 325 | 5.0 | 12.0 | 0.00 | 0.00 | 0.00 | 44 | 1019.7 |
| 20260903165819 | 88 | 360 | 6.0 | 12.0 | 0.00 | 0.00 | 0.00 | 47 | 1019.6 |
| 20260903165321 | 90 | 360 | 5.0 | 9.0 | 0.00 | 0.00 | 0.00 | 46 | 1019.6 |
| 20260903164814 | 94 | 360 | 4.0 | 6.0 | 0.00 | 0.00 | 0.00 | 37 | 1019.3 |
| 20260903164336 | 97 | 253 | 3.0 | 4.0 | 0.00 | 0.00 | 0.00 | 32 | 1019.2 |
| 20260903163831 | 97 | 248 | 2.0 | 4.0 | 0.00 | 0.00 | 0.00 | 30 | 1019.2 |
| 20260903163323 | 97 | 267 | 1.0 | 4.0 | 0.00 | 0.00 | 0.00 | 31 | 1019.3 |
| 20260903162823 | 97 | 254 | 3.0 | 4.0 | 0.00 | 0.00 | 0.00 | 30 | 1019.2 |
| 20260903162341 | 96 | 360 | 2.0 | 4.0 | 0.00 | 0.00 | 0.00 | 32 | 1019.2 |
| 20260903161815 | 96 | 360 | 3.0 | 4.0 | 0.00 | 0.00 | 0.00 | 31 | 1019.3 |
| 20260903161328 | 96 | 360 | 3.0 | 4.0 | 0.00 | 0.00 | 0.00 | 31 | 1019.3 |
| 20260903160829 | 97 | 262 | 3.0 | 4.0 | 0.00 | 0.00 | 0.00 | 31 | 1019.4 |
| 20260903160320 | 97 | 257 | 2.0 | 4.0 | 0.00 | 0.00 | 0.00 | 32 | 1019.4 |
| 20260903155819 | 96 | 360 | 3.0 | 4.0 | 0.00 | 0.00 | 0.00 | 32 | 1019.5 |
| 20260903155338 | 96 | 360 | 2.0 | 4.0 | 0.00 | 0.00 | 0.00 | 33 | 1019.6 |
| 20260903154815 | 96 | 360 | 2.0 | 4.0 | 0.00 | 0.00 | 0.00 | 33 | 1019.6 |
| 20260903154326 | 96 | 254 | 1.0 | 6.0 | 0.00 | 0.00 | 0.00 | 33 | 1019.6 |
| 20260903153818 | 95 | 360 | 3.0 | 6.0 | 0.00 | 0.00 | 0.00 | 33 | 1019.7 |
| 20260903153319 | 95 | 266 | 1.0 | 3.0 | 0.00 | 0.00 | 0.00 | 35 | 1019.7 |
| 20260903152833 | 93 | 360 | 1.0 | 4.0 | 0.00 | 0.00 | 0.00 | 36 | 1019.7 |
| 20260903152332 | 93 | 311 | 2.0 | 5.0 | 0.00 | 0.00 | 0.00 | 36 | 1019.8 |
| 20260903151856 | 92 | 360 | 3.0 | 5.0 | 0.00 | 0.00 | 0.00 | 37 | 1019.8 |
| 20260903151330 | 91 | 251 | 4.0 | 5.0 | 0.00 | 0.00 | 0.00 | 38 | 1019.9 |
| 20260903150824 | 91 | 360 | 4.0 | 5.0 | 0.00 | 0.00 | 0.00 | 38 | 1019.8 |
| 20260903150323 | 91 | 256 | 3.0 | 5.0 | 0.00 | 0.00 | 0.00 | 39 | 1019.9 |
| 20260903145833 | 92 | 250 | 4.0 | 5.0 | 0.00 | 0.00 | 0.00 | 36 | 1019.9 |
| 20260903145328 | 93 | 360 | 2.0 | 4.0 | 0.00 | 0.00 | 0.00 | 39 | 1020.0 |
| 20260903144821 | 92 | 237 | 2.0 | 4.0 | 0.00 | 0.00 | 0.00 | 38 | 1020.0 |
| 20260903144315 | 91 | 243 | 2.0 | 3.0 | 0.00 | 0.00 | 0.00 | 40 | 1020.1 |
| 20260903143816 | 90 | 242 | 2.0 | 4.0 | 0.00 | 0.00 | 0.00 | 42 | 1020.2 |
| 20260903143331 | 90 | 256 | 2.0 | 4.0 | 0.00 | 0.00 | 0.00 | 40 | 1020.2 |
| 20260903142835 | 90 | 254 | 2.0 | 3.0 | 0.00 | 0.00 | 0.00 | 46 | 1020.3 |
| 20260903142332 | 90 | 240 | 2.0 | 3.0 | 0.00 | 0.00 | 0.00 | 53 | 1020.4 |
| 20260903141831 | 91 | 249 | 2.0 | 3.0 | 0.00 | 0.00 | 0.00 | 50 | 1020.5 |
| 20260903141353 | 91 | 238 | 2.0 | 3.0 | 0.00 | 0.00 | 0.00 | 48 | 1020.4 |
| 20260903140829 | 91 | 243 | 1.0 | 3.0 | 0.00 | 0.00 | 0.00 | 47 | 1020.6 |
| 20260903140346 | 89 | 243 | 0.0 | 3.0 | 0.00 | 0.00 | 0.00 | 42 | 1020.6 |
| 20260903135822 | 89 | 243 | 2.0 | 3.0 | 0.00 | 0.00 | 0.00 | 45 | 1020.8 |
| 20260903135314 | 89 | 360 | 1.0 | 3.0 | 0.00 | 0.00 | 0.00 | 52 | 1020.7 |
| 20260903134838 | 89 | 242 | 1.0 | 3.0 | 0.00 | 0.00 | 0.00 | 52 | 1020.7 |
| 20260903134341 | 89 | 243 | 1.0 | 2.0 | 0.00 | 0.00 | 0.00 | 47 | 1020.6 |
| 20260903133816 | 89 | 242 | 0.0 | 3.0 | 0.00 | 0.00 | 0.00 | 48 | 1020.8 |
| 20260903133331 | 89 | 245 | 1.0 | 3.0 | 0.00 | 0.00 | 0.00 | 49 | 1020.8 |
| 20260903132832 | 88 | 245 | 2.0 | 3.0 | 0.00 | 0.00 | 0.00 | 45 | 1020.9 |
| 20260903132321 | 88 | 239 | 2.0 | 3.0 | 0.00 | 0.00 | 0.00 | 47 | 1020.9 |
| 20260903131815 | 87 | 239 | 2.0 | 3.0 | 0.00 | 0.00 | 0.00 | 52 | 1021.0 |
| 20260903131327 | 87 | 240 | 2.0 | 4.0 | 0.00 | 0.00 | 0.00 | 50 | 1021.1 |
| 20260903130822 | 86 | 238 | 2.0 | 5.0 | 0.00 | 0.00 | 0.00 | 48 | 1021.1 |
| 20260903130346 | 85 | 240 | 2.0 | 5.0 | 0.00 | 0.00 | 0.00 | 50 | 1021.1 |
| 20260903125817 | 84 | 254 | 3.0 | 4.0 | 0.00 | 0.00 | 0.00 | 52 | 1021.1 |
| 20260903125351 | 83 | 250 | 3.0 | 6.0 | 0.00 | 0.00 | 0.00 | 53 | 1021.1 |
| 20260903124817 | 82 | 360 | 4.0 | 6.0 | 0.00 | 0.00 | 0.00 | 55 | 1021.4 |
| 20260903124341 | 82 | 360 | 3.0 | 7.0 | 0.00 | 0.00 | 0.00 | 57 | 1021.4 |
| 20260903123823 | 81 | 360 | 3.0 | 6.0 | 0.00 | 0.00 | 0.00 | 59 | 1021.4 |
| 20260903123318 | 80 | 360 | 3.0 | 6.0 | 0.00 | 0.00 | 0.00 | 62 | 1021.4 |
| 20260903122820 | 80 | 360 | 2.0 | 5.0 | 0.00 | 0.00 | 0.00 | 61 | 1021.4 |
| 20260903122317 | 80 | 276 | 3.0 | 6.0 | 0.00 | 0.00 | 0.00 | 63 | 1021.4 |
| 20260903121841 | 80 | 285 | 3.0 | 6.0 | 0.00 | 0.00 | 0.00 | 62 | 1021.4 |
| 20260903121315 | 80 | 265 | 4.0 | 5.0 | 0.00 | 0.00 | 0.00 | 62 | 1021.4 |
| 20260903120836 | 80 | 256 | 3.0 | 4.0 | 0.00 | 0.00 | 0.00 | 61 | 1021.4 |
| 20260903120333 | 80 | 252 | 2.0 | 4.0 | 0.00 | 0.00 | 0.00 | 62 | 1021.4 |
| 20260903115833 | 80 | 256 | 3.0 | 4.0 | 0.00 | 0.00 | 0.00 | 63 | 1021.5 |
| 20260903115329 | 79 | 360 | 2.0 | 4.0 | 0.00 | 0.00 | 0.00 | 64 | 1021.5 |
| 20260903114828 | 79 | 254 | 3.0 | 4.0 | 0.00 | 0.00 | 0.00 | 64 | 1021.7 |
| 20260903114325 | 78 | 360 | 3.0 | 6.0 | 0.00 | 0.00 | 0.00 | 66 | 1021.8 |
| 20260903113822 | 78 | 255 | 3.0 | 6.0 | 0.00 | 0.00 | 0.00 | 66 | 1021.9 |
| 20260903113319 | 79 | 264 | 3.0 | 4.0 | 0.00 | 0.00 | 0.00 | 66 | 1022.0 |
| 20260903112816 | 79 | 239 | 2.0 | 3.0 | 0.00 | 0.00 | 0.00 | 64 | 1022.0 |
| 20260903112340 | 78 | 235 | 2.0 | 3.0 | 0.00 | 0.00 | 0.00 | 65 | 1022.0 |
| 20260903111816 | 78 | 226 | 2.0 | 3.0 | 0.00 | 0.00 | 0.00 | 65 | 1022.0 |
| 20260903111330 | 78 | 225 | 1.0 | 3.0 | 0.00 | 0.00 | 0.00 | 66 | 1022.1 |
| 20260903110814 | 78 | 230 | 2.0 | 3.0 | 0.00 | 0.00 | 0.00 | 66 | 1022.0 |
| 20260903110329 | 78 | 238 | 2.0 | 3.0 | 0.00 | 0.00 | 0.00 | 68 | 1022.1 |
| 20260903105828 | 77 | 240 | 0.0 | 2.0 | 0.00 | 0.00 | 0.00 | 69 | 1022.1 |
| 20260903105342 | 76 | 241 | 1.0 | 2.0 | 0.00 | 0.00 | 0.00 | 70 | 1022.2 |
| 20260903104829 | 76 | 242 | 1.0 | 3.0 | 0.00 | 0.00 | 0.00 | 70 | 1022.3 |
| 20260903104328 | 75 | 242 | 1.0 | 3.0 | 0.00 | 0.00 | 0.00 | 71 | 1022.4 |
| 20260903103821 | 74 | 360 | 2.0 | 4.0 | 0.00 | 0.00 | 0.00 | 72 | 1022.3 |
| 20260903103322 | 74 | 261 | 3.0 | 4.0 | 0.00 | 0.00 | 0.00 | 71 | 1022.4 |
| 20260903102818 | 74 | 360 | 2.0 | 4.0 | 0.00 | 0.00 | 0.00 | 71 | 1022.3 |
| 20260903102315 | 74 | 254 | 2.0 | 3.0 | 0.00 | 0.00 | 0.00 | 72 | 1022.3 |
| 20260903101830 | 73 | 254 | 2.0 | 3.0 | 0.00 | 0.00 | 0.00 | 73 | 1022.3 |
| 20260903101344 | 73 | 265 | 2.0 | 3.0 | 0.00 | 0.00 | 0.00 | 73 | 1022.3 |
| 20260903100823 | 72 | 266 | 2.0 | 5.0 | 0.00 | 0.00 | 0.00 | 74 | 1022.2 |
| 20260903100319 | 72 | 360 | 3.0 | 5.0 | 0.00 | 0.00 | 0.00 | 73 | 1022.3 |
| 20260903095821 | 72 | 255 | 3.0 | 4.0 | 0.00 | 0.00 | 0.00 | 73 | 1022.3 |
| 20260903095317 | 72 | 261 | 3.0 | 5.0 | 0.00 | 0.00 | 0.00 | 73 | 1022.2 |
| 20260903094842 | 72 | 360 | 3.0 | 5.0 | 0.00 | 0.00 | 0.00 | 73 | 1022.2 |
| 20260903094344 | 72 | 263 | 3.0 | 3.0 | 0.00 | 0.00 | 0.00 | 73 | 1022.0 |
| 20260903093841 | 72 | 360 | 2.0 | 4.0 | 0.00 | 0.00 | 0.00 | 74 | 1022.1 |
| 20260903093323 | 71 | 360 | 3.0 | 4.0 | 0.00 | 0.00 | 0.00 | 74 | 1022.2 |
| 20260903092815 | 71 | 263 | 2.0 | 5.0 | 0.00 | 0.00 | 0.00 | 74 | 1022.1 |
| 20260903092342 | 71 | 268 | 3.0 | 5.0 | 0.00 | 0.00 | 0.00 | 74 | 1022.0 |
| 20260903091814 | 71 | 360 | 3.0 | 4.0 | 0.00 | 0.00 | 0.00 | 73 | 1022.1 |
| 20260903091334 | 71 | 265 | 2.0 | 4.0 | 0.00 | 0.00 | 0.00 | 74 | 1022.1 |
| 20260903090835 | 71 | 360 | 2.0 | 4.0 | 0.00 | 0.00 | 0.00 | 75 | 1021.9 |
| 20260903090320 | 70 | 360 | 2.0 | 4.0 | 0.00 | 0.00 | 0.00 | 75 | 1021.8 |
| 20260903085851 | 70 | 265 | 3.0 | 4.0 | 0.00 | 0.00 | 0.00 | 74 | 1021.9 |
| 20260903085326 | 71 | 360 | 3.0 | 4.0 | 0.00 | 0.00 | 0.00 | 74 | 1021.7 |
| 20260903084834 | 71 | 262 | 2.0 | 3.0 | 0.00 | 0.00 | 0.00 | 74 | 1021.7 |
| 20260903084335 | 71 | 261 | 0.0 | 2.0 | 0.00 | 0.00 | 0.00 | 75 | 1021.7 |
| 20260903083829 | 71 | 261 | 0.0 | 0.0 | 0.00 | 0.00 | 0.00 | 75 | 1021.6 |
| 20260903083333 | 71 | 261 | 0.0 | 0.0 | 0.00 | 0.00 | 0.00 | 75 | 1021.5 |
| 20260903082850 | 71 | 261 | 0.0 | 1.0 | 0.00 | 0.00 | 0.00 | 76 | 1021.6 |
| 20260903082338 | 71 | 261 | 0.0 | 3.0 | 0.00 | 0.00 | 0.00 | 76 | 1021.7 |
| 20260903081901 | 71 | 261 | 1.0 | 3.0 | 0.00 | 0.00 | 0.00 | 76 | 1021.7 |
| 20260903081318 | 71 | 261 | 0.0 | 3.0 | 0.00 | 0.00 | 0.00 | 76 | 1021.7 |
| 20260903080839 | 70 | 261 | 1.0 | 3.0 | 0.00 | 0.00 | 0.00 | 75 | 1021.8 |
| 20260903080327 | 71 | 290 | 0.0 | 2.0 | 0.00 | 0.00 | 0.00 | 75 | 1021.7 |
| 20260903075842 | 71 | 292 | 1.0 | 3.0 | 0.00 | 0.00 | 0.00 | 74 | 1021.7 |
| 20260903075322 | 71 | 290 | 1.0 | 3.0 | 0.00 | 0.00 | 0.00 | 73 | 1021.7 |
| 20260903074822 | 71 | 286 | 2.0 | 3.0 | 0.00 | 0.00 | 0.00 | 72 | 1021.7 |
| 20260903074334 | 72 | 313 | 1.0 | 2.0 | 0.00 | 0.00 | 0.00 | 72 | 1021.6 |
| 20260903073851 | 72 | 313 | 0.0 | 1.0 | 0.00 | 0.00 | 0.00 | 71 | 1021.7 |
| 20260903073325 | 72 | 314 | 0.0 | 3.0 | 0.00 | 0.00 | 0.00 | 71 | 1021.7 |
| 20260903072830 | 72 | 314 | 0.0 | 3.0 | 0.00 | 0.00 | 0.00 | 70 | 1021.6 |
| 20260903072349 | 73 | 97 | 0.0 | 1.0 | 0.00 | 0.00 | 0.00 | 69 | 1021.6 |
| 20260903071831 | 72 | 97 | 0.0 | 1.0 | 0.00 | 0.00 | 0.00 | 70 | 1021.6 |
| 20260903071323 | 72 | 97 | 0.0 | 1.0 | 0.00 | 0.00 | 0.00 | 70 | 1021.5 |
| 20260903070850 | 72 | 97 | 0.0 | 1.0 | 0.00 | 0.00 | 0.00 | 70 | 1021.4 |
| 20260903070326 | 71 | 97 | 0.0 | 1.0 | 0.00 | 0.00 | 0.00 | 70 | 1021.3 |
| 20260903065835 | 71 | 97 | 0.0 | 1.0 | 0.00 | 0.00 | 0.00 | 71 | 1021.4 |
| 20260903065316 | 70 | 97 | 0.0 | 3.0 | 0.00 | 0.00 | 0.00 | 72 | 1021.4 |
| 20260903064815 | 70 | 97 | 1.0 | 3.0 | 0.00 | 0.00 | 0.00 | 72 | 1021.4 |
| 20260903064329 | 70 | 94 | 1.0 | 3.0 | 0.00 | 0.00 | 0.00 | 72 | 1021.4 |
| 20260903063832 | 70 | 91 | 0.0 | 1.0 | 0.00 | 0.00 | 0.00 | 72 | 1021.4 |
| 20260903063315 | 69 | 91 | 0.0 | 3.0 | 0.00 | 0.00 | 0.00 | 73 | 1021.2 |
| 20260903062839 | 69 | 91 | 1.0 | 3.0 | 0.00 | 0.00 | 0.00 | 74 | 1021.2 |
| 20260903062332 | 69 | 89 | 0.0 | 0.0 | 0.00 | 0.00 | 0.00 | 74 | 1021.1 |
| 20260903061835 | 69 | 89 | 0.0 | 0.0 | 0.00 | 0.00 | 0.00 | 74 | 1021.2 |
| 20260903061329 | 69 | 89 | 0.0 | 0.0 | 0.00 | 0.00 | 0.00 | 74 | 1021.1 |
| 20260903060826 | 69 | 89 | 0.0 | 2.0 | 0.00 | 0.00 | 0.00 | 74 | 1021.2 |
| 20260903060350 | 69 | 89 | 0.0 | 2.0 | 0.00 | 0.00 | 0.00 | 74 | 1021.1 |
| 20260903055829 | 69 | 88 | 0.0 | 2.0 | 0.00 | 0.00 | 0.00 | 74 | 1021.1 |
| 20260903055329 | 69 | 87 | 0.0 | 3.0 | 0.00 | 0.00 | 0.00 | 74 | 1021.1 |
| 20260903054832 | 69 | 89 | 1.0 | 3.0 | 0.00 | 0.00 | 0.00 | 74 | 1021.1 |
| 20260903054317 | 69 | 88 | 1.0 | 3.0 | 0.00 | 0.00 | 0.00 | 74 | 1021.1 |
| 20260903053837 | 68 | 75 | 1.0 | 3.0 | 0.00 | 0.00 | 0.00 | 75 | 1021.0 |
| 20260903053318 | 68 | 123 | 1.0 | 2.0 | 0.00 | 0.00 | 0.00 | 75 | 1021.0 |
| 20260903052833 | 68 | 123 | 1.0 | 2.0 | 0.00 | 0.00 | 0.00 | 75 | 1021.0 |
| 20260903052342 | 68 | 123 | 0.0 | 0.0 | 0.00 | 0.00 | 0.00 | 74 | 1021.1 |
| 20260903051840 | 69 | 123 | 0.0 | 1.0 | 0.00 | 0.00 | 0.00 | 74 | 1021.1 |
| 20260903051326 | 69 | 123 | 0.0 | 3.0 | 0.00 | 0.00 | 0.00 | 74 | 1021.0 |
| 20260903050817 | 68 | 123 | 1.0 | 3.0 | 0.00 | 0.00 | 0.00 | 74 | 1021.0 |
| 20260903050348 | 68 | 130 | 1.0 | 2.0 | 0.00 | 0.00 | 0.00 | 75 | 1021.0 |
| 20260903045845 | 68 | 132 | 1.0 | 2.0 | 0.00 | 0.00 | 0.00 | 75 | 1021.0 |
| 20260903045319 | 68 | 132 | 0.0 | 3.0 | 0.00 | 0.00 | 0.00 | 75 | 1021.0 |
| 20260903044854 | 69 | 132 | 0.0 | 3.0 | 0.00 | 0.00 | 0.00 | 75 | 1021.0 |
| 20260903044338 | 69 | 128 | 2.0 | 3.0 | 0.00 | 0.00 | 0.00 | 75 | 1020.9 |
| 20260903043830 | 69 | 96 | 0.0 | 0.0 | 0.00 | 0.00 | 0.00 | 75 | 1020.9 |
| 20260903043322 | 69 | 96 | 0.0 | 0.0 | 0.00 | 0.00 | 0.00 | 74 | 1020.7 |
| 20260903042852 | 69 | 96 | 0.0 | 0.0 | 0.00 | 0.00 | 0.00 | 74 | 1020.6 |
| 20260903042331 | 69 | 96 | 0.0 | 0.0 | 0.00 | 0.00 | 0.00 | 74 | 1020.7 |
| 20260903041836 | 69 | 96 | 0.0 | 0.0 | 0.00 | 0.00 | 0.00 | 74 | 1020.7 |
| 20260903041326 | 69 | 96 | 0.0 | 0.0 | 0.00 | 0.00 | 0.00 | 74 | 1020.7 |
| 20260903040824 | 70 | 96 | 0.0 | 0.0 | 0.00 | 0.00 | 0.00 | 73 | 1020.7 |
| 20260903040329 | 70 | 96 | 0.0 | 0.0 | 0.00 | 0.00 | 0.00 | 73 | 1020.8 |
| 20260903035827 | 69 | 96 | 0.0 | 0.0 | 0.00 | 0.00 | 0.00 | 72 | 1020.8 |
| 20260903035334 | 69 | 96 | 0.0 | 0.0 | 0.00 | 0.00 | 0.00 | 73 | 1020.8 |
| 20260903034823 | 69 | 96 | 0.0 | 1.0 | 0.00 | 0.00 | 0.00 | 74 | 1020.8 |
| 20260903034333 | 69 | 96 | 0.0 | 1.0 | 0.00 | 0.00 | 0.00 | 74 | 1020.8 |
| 20260903033835 | 70 | 96 | 0.0 | 0.0 | 0.00 | 0.00 | 0.00 | 74 | 1020.9 |
| 20260903033331 | 70 | 96 | 0.0 | 0.0 | 0.00 | 0.00 | 0.00 | 74 | 1020.9 |
| 20260903032822 | 70 | 96 | 0.0 | 1.0 | 0.00 | 0.00 | 0.00 | 73 | 1021.0 |
| 20260903032334 | 70 | 96 | 0.0 | 0.0 | 0.00 | 0.00 | 0.00 | 73 | 1020.9 |
| 20260903031834 | 70 | 96 | 0.0 | 1.0 | 0.00 | 0.00 | 0.00 | 72 | 1020.9 |
| 20260903031331 | 71 | 96 | 0.0 | 1.0 | 0.00 | 0.00 | 0.00 | 71 | 1020.9 |
| 20260903030830 | 71 | 96 | 0.0 | 0.0 | 0.00 | 0.00 | 0.00 | 70 | 1020.9 |
| 20260903030317 | 71 | 96 | 0.0 | 0.0 | 0.00 | 0.00 | 0.00 | 69 | 1020.9 |
| 20260903025821 | 72 | 96 | 0.0 | 1.0 | 0.00 | 0.00 | 0.00 | 69 | 1021.0 |
| 20260903025341 | 72 | 96 | 0.0 | 3.0 | 0.00 | 0.00 | 0.00 | 67 | 1021.0 |
| 20260903024815 | 72 | 96 | 0.0 | 3.0 | 0.00 | 0.00 | 0.00 | 66 | 1021.1 |
| 20260903024318 | 72 | 100 | 1.0 | 3.0 | 0.00 | 0.00 | 0.00 | 65 | 1021.0 |
| 20260903023820 | 72 | 101 | 1.0 | 3.0 | 0.00 | 0.00 | 0.00 | 65 | 1021.1 |
| 20260903023320 | 72 | 92 | 0.0 | 3.0 | 0.00 | 0.00 | 0.00 | 65 | 1021.0 |
| 20260903022828 | 72 | 92 | 0.0 | 3.0 | 0.00 | 0.00 | 0.00 | 65 | 1021.0 |
| 20260903022329 | 73 | 92 | 1.0 | 3.0 | 0.00 | 0.00 | 0.00 | 65 | 1020.9 |
| 20260903021824 | 73 | 94 | 1.0 | 3.0 | 0.00 | 0.00 | 0.00 | 64 | 1021.0 |
| 20260903021333 | 73 | 142 | 1.0 | 2.0 | 0.00 | 0.00 | 0.00 | 64 | 1021.0 |
| 20260903020825 | 73 | 231 | 0.0 | 0.0 | 0.00 | 0.00 | 0.00 | 65 | 1021.0 |
| 20260903020346 | 73 | 232 | 0.0 | 0.0 | 0.00 | 0.00 | 0.00 | 65 | 1020.9 |
| 20260903015829 | 73 | 232 | 0.0 | 3.0 | 0.00 | 0.00 | 0.00 | 64 | 1021.0 |
| 20260903015333 | 72 | 245 | 0.0 | 3.0 | 0.00 | 0.00 | 0.00 | 66 | 1020.8 |
| 20260903014847 | 72 | 248 | 0.0 | 3.0 | 0.00 | 0.00 | 0.00 | 67 | 1020.8 |
| 20260903014320 | 72 | 248 | 0.0 | 3.0 | 0.00 | 0.00 | 0.00 | 68 | 1020.9 |
| 20260903013820 | 73 | 284 | 0.0 | 3.0 | 0.00 | 0.00 | 0.00 | 66 | 1020.8 |
| 20260903013314 | 72 | 342 | 0.0 | 3.0 | 0.00 | 0.00 | 0.00 | 66 | 1020.8 |
| 20260903012827 | 72 | 102 | 0.0 | 3.0 | 0.00 | 0.00 | 0.00 | 67 | 1020.8 |
| 20260903012325 | 72 | 161 | 0.0 | 0.0 | 0.00 | 0.00 | 0.00 | 68 | 1020.9 |
| 20260903011822 | 72 | 161 | 0.0 | 0.0 | 0.00 | 0.00 | 0.00 | 68 | 1020.9 |
| 20260903011320 | 72 | 161 | 0.0 | 0.0 | 0.00 | 0.00 | 0.00 | 68 | 1021.0 |
| 20260903010816 | 72 | 161 | 0.0 | 0.0 | 0.00 | 0.00 | 0.00 | 68 | 1021.0 |
| 20260903010340 | 72 | 161 | 0.0 | 0.0 | 0.00 | 0.00 | 0.00 | 68 | 1021.1 |
| 20260903005816 | 72 | 161 | 0.0 | 0.0 | 0.00 | 0.00 | 0.00 | 69 | 1021.2 |
| 20260903005326 | 72 | 161 | 0.0 | 0.0 | 0.00 | 0.00 | 0.00 | 68 | 1021.2 |
| 20260903004831 | 72 | 161 | 0.0 | 0.0 | 0.00 | 0.00 | 0.00 | 68 | 1021.3 |
| 20260903004343 | 72 | 161 | 0.0 | 0.0 | 0.00 | 0.00 | 0.00 | 68 | 1021.3 |
| 20260903003827 | 73 | 161 | 0.0 | 0.0 | 0.00 | 0.00 | 0.00 | 68 | 1021.4 |
| 20260903003322 | 73 | 161 | 0.0 | 0.0 | 0.00 | 0.00 | 0.00 | 67 | 1021.4 |
| 20260903002833 | 73 | 161 | 0.0 | 0.0 | 0.00 | 0.00 | 0.00 | 68 | 1021.5 |
| 20260903002355 | 73 | 161 | 0.0 | 2.0 | 0.00 | 0.00 | 0.00 | 66 | 1021.5 |
| 20260903001831 | 73 | 161 | 0.0 | 2.0 | 0.00 | 0.00 | 0.00 | 66 | 1021.4 |
| 20260903001325 | 73 | 165 | 0.0 | 5.0 | 0.00 | 0.00 | 0.00 | 66 | 1021.4 |
| 20260903000818 | 74 | 165 | 3.0 | 5.0 | 0.00 | 0.00 | 0.00 | 65 | 1021.4 |
| 20260903000322 | 74 | 157 | 1.0 | 2.0 | 0.00 | 0.00 | 0.00 | 64 | 1021.5 |
| 20260902235814 | 74 | 185 | 0.0 | 0.0 | 0.00 | 0.00 | 0.00 | 64 | 1021.4 |
| 20260902235315 | 74 | 185 | 0.0 | 0.0 | 0.00 | 0.00 | 0.00 | 63 | 1021.4 |
| 20260902234824 | 75 | 185 | 0.0 | 1.0 | 0.00 | 0.00 | 0.00 | 63 | 1021.5 |
| 20260902234315 | 75 | 185 | 0.0 | 3.0 | 0.00 | 0.00 | 0.00 | 62 | 1021.4 |
| 20260902233816 | 75 | 185 | 1.0 | 5.0 | 0.00 | 0.00 | 0.00 | 62 | 1021.4 |
| 20260902233326 | 76 | 183 | 3.0 | 9.0 | 0.00 | 0.00 | 0.00 | 61 | 1021.4 |
| 20260902232830 | 76 | 360 | 4.0 | 11.0 | 0.00 | 0.00 | 0.00 | 60 | 1021.2 |
| 20260902232323 | 76 | 98 | 5.0 | 12.0 | 0.00 | 0.00 | 0.00 | 60 | 1021.2 |
| 20260902231818 | 76 | 360 | 5.0 | 12.0 | 0.00 | 0.00 | 0.00 | 60 | 1021.2 |
| 20260902231321 | 76 | 80 | 7.0 | 12.0 | 0.00 | 0.00 | 0.00 | 60 | 1021.2 |
| 20260902230814 | 76 | 64 | 7.0 | 14.0 | 0.00 | 0.00 | 0.00 | 59 | 1021.1 |
| 20260902230338 | 76 | 346 | 6.0 | 13.0 | 0.00 | 0.00 | 0.00 | 59 | 1021.1 |
| 20260902225840 | 76 | 49 | 8.0 | 13.0 | 0.00 | 0.00 | 0.00 | 60 | 1021.1 |
| 20260902225316 | 76 | 341 | 6.0 | 15.0 | 0.00 | 0.00 | 0.00 | 60 | 1021.2 |
| 20260902224818 | 76 | 67 | 7.0 | 15.0 | 0.00 | 0.00 | 0.00 | 60 | 1021.2 |